Leuchars, United Kingdom
Current Conditions -  °F | °C
As of 9:50 AM on Sunday 26 Oct 2014 (Local Time) from EGQL Reporting Station
Scattered Clouds Scattered Clouds  
Wind Chill: 55°   Ceiling: Unl
Heat Index: 55°   Visibility: 6mi
Dew Point: 46°   Wind: 29mph
Humidity: 72%   Direction: 250°WSW
Pressure: 29.59"   Gusts: 41mph
Location:  56.38°N, 2.89°W
Report Text: EGQL 260850Z 25025G36KT 9999 SCT026 13/08 Q1002 BLU
Loading
Personal Weather Stations






























Interactive Weather Map New forecast layout! Learn more

10-Day Weather Forecast

Advertisements
Track Severe Weather on mobile